createdAt,value
2018-09-29T00:00:39.714Z,4.00
2018-09-29T00:01:39.861Z,4.00
2018-09-29T00:02:40.037Z,4.00
2018-09-29T00:03:40.183Z,4.00
2018-09-29T00:04:40.355Z,4.00
2018-09-29T00:05:41.499Z,4.00
2018-09-29T00:06:40.659Z,4.00
2018-09-29T00:07:40.821Z,4.00
2018-09-29T00:08:40.991Z,4.00
2018-09-29T00:09:41.139Z,4.00
2018-09-29T00:10:41.306Z,4.00
2018-09-29T00:13:13.928Z,4.00
2018-09-29T00:14:13.957Z,4.00
2018-09-29T00:15:14.192Z,4.00
2018-09-29T00:16:22.050Z,4.00
2018-09-29T00:17:14.525Z,4.00
2018-09-29T00:18:14.683Z,4.00
2018-09-29T00:19:14.843Z,4.00
2018-09-29T00:20:15.009Z,4.00
2018-09-29T00:21:15.174Z,4.00
2018-09-29T00:22:15.343Z,4.00
2018-09-29T00:23:15.506Z,4.00
2018-09-29T00:24:15.659Z,4.00
2018-09-29T00:25:15.827Z,4.00
2018-09-29T00:26:15.985Z,4.00
2018-09-29T00:28:58.244Z,4.00
2018-09-29T00:29:58.407Z,4.00
2018-09-29T00:30:58.569Z,4.00
2018-09-29T00:31:58.731Z,4.00
2018-09-29T00:32:58.936Z,4.00
2018-09-29T00:33:59.055Z,4.00
2018-09-29T00:34:59.217Z,4.00
2018-09-29T00:35:59.372Z,4.00
2018-09-29T00:36:59.538Z,4.00
2018-09-29T00:37:59.699Z,4.00
2018-09-29T00:38:59.855Z,4.00
2018-09-29T00:40:00.021Z,4.00
2018-09-29T00:41:00.177Z,4.00
2018-09-29T00:42:00.337Z,4.00
2018-09-29T00:43:00.501Z,4.00
2018-09-29T00:45:42.761Z,4.00
2018-09-29T00:46:42.917Z,4.00
2018-09-29T00:47:43.095Z,4.00
2018-09-29T00:48:43.253Z,4.00
2018-09-29T00:49:43.418Z,4.00
2018-09-29T00:50:43.579Z,4.00
2018-09-29T00:51:43.749Z,4.00
2018-09-29T00:52:43.900Z,4.00
2018-09-29T00:53:44.067Z,4.00
2018-09-29T00:54:44.231Z,4.00
2018-09-29T00:57:26.500Z,4.00
2018-09-29T00:58:26.659Z,4.00
2018-09-29T00:59:26.821Z,4.00
2018-09-29T01:00:34.654Z,4.00
2018-09-29T01:01:27.187Z,4.00
2018-09-29T01:02:27.349Z,4.00
2018-09-29T01:03:27.513Z,4.00
2018-09-29T01:04:27.677Z,4.00
2018-09-29T01:05:27.834Z,4.00
2018-09-29T01:06:27.999Z,4.00
2018-09-29T01:07:28.159Z,4.00
2018-09-29T01:08:28.321Z,4.00
2018-09-29T01:09:28.500Z,4.00
2018-09-29T01:10:28.638Z,4.00
2018-09-29T01:11:28.807Z,4.00
2018-09-29T01:12:28.967Z,0.00
2018-09-29T01:13:30.041Z,4.00
2018-09-29T01:14:29.330Z,4.00
2018-09-29T01:17:01.610Z,4.00
2018-09-29T01:18:01.770Z,4.00
2018-09-29T01:19:01.936Z,4.00
2018-09-29T01:20:02.095Z,4.00
2018-09-29T01:21:02.258Z,4.00
2018-09-29T01:22:02.415Z,4.00
2018-09-29T01:23:02.577Z,4.00
2018-09-29T01:24:02.756Z,4.00
2018-09-29T01:25:02.918Z,4.00
2018-09-29T01:26:03.074Z,4.00
2018-09-29T01:27:03.240Z,4.00
2018-09-29T01:28:03.397Z,4.00
2018-09-29T01:29:03.557Z,4.00
2018-09-29T01:30:03.725Z,4.00
2018-09-29T01:31:03.872Z,4.00
2018-09-29T01:33:36.432Z,4.00
2018-09-29T01:34:36.596Z,4.00
2018-09-29T01:35:36.757Z,4.00
2018-09-29T01:36:36.922Z,4.00
2018-09-29T01:37:37.087Z,4.00
2018-09-29T01:38:37.249Z,4.00
2018-09-29T01:39:37.408Z,4.00
2018-09-29T01:40:37.568Z,4.00
2018-09-29T01:41:37.734Z,4.00
2018-09-29T01:42:37.889Z,4.00
2018-09-29T01:43:38.050Z,4.00
2018-09-29T01:44:38.217Z,4.00
2018-09-29T01:45:38.362Z,4.00
2018-09-29T01:46:38.528Z,4.00
2018-09-29T01:47:38.694Z,4.00
2018-09-29T01:51:49.569Z,4.00
2018-09-29T01:52:49.356Z,4.00
2018-09-29T01:53:49.511Z,4.00
2018-09-29T01:54:49.677Z,4.00
2018-09-29T01:55:49.845Z,4.00
2018-09-29T01:56:49.998Z,4.00
2018-09-29T01:57:50.165Z,4.00
2018-09-29T01:58:50.320Z,4.00
2018-09-29T01:59:50.471Z,4.00
2018-09-29T02:00:50.634Z,4.00
2018-09-29T02:03:33.189Z,4.00
2018-09-29T02:04:33.351Z,4.00
2018-09-29T02:05:33.494Z,4.00
2018-09-29T02:06:33.665Z,4.00
2018-09-29T02:07:35.415Z,4.00
2018-09-29T02:08:33.989Z,4.00
2018-09-29T02:09:36.915Z,4.00
2018-09-29T02:10:34.320Z,4.00
2018-09-29T02:11:34.489Z,4.00
2018-09-29T02:12:34.640Z,4.00
2018-09-29T02:13:34.824Z,4.00
2018-09-29T02:14:34.967Z,4.00
2018-09-29T02:15:35.134Z,4.00
2018-09-29T02:16:35.292Z,4.00
2018-09-29T02:17:35.454Z,4.00
2018-09-29T02:23:16.049Z,4.00
2018-09-29T02:24:16.202Z,4.00
2018-09-29T02:25:16.349Z,4.00
2018-09-29T02:26:16.517Z,4.00
2018-09-29T02:27:16.683Z,4.00
2018-09-29T02:28:16.854Z,4.00
2018-09-29T02:29:17.013Z,4.00
2018-09-29T02:30:17.171Z,4.00
2018-09-29T02:31:17.336Z,4.00
2018-09-29T02:32:17.496Z,4.00
2018-09-29T02:35:00.059Z,4.00
2018-09-29T02:36:00.212Z,4.00
2018-09-29T02:37:00.449Z,4.00
2018-09-29T02:38:00.542Z,4.00
2018-09-29T02:39:00.709Z,4.00
2018-09-29T02:40:00.865Z,4.00
2018-09-29T02:41:01.023Z,4.00
2018-09-29T02:42:01.215Z,4.00
2018-09-29T02:43:01.350Z,4.00
2018-09-29T02:44:01.507Z,4.00
2018-09-29T02:46:44.048Z,4.00
2018-09-29T02:47:44.192Z,4.00
2018-09-29T02:48:44.357Z,4.00
2018-09-29T02:49:44.499Z,4.00
2018-09-29T02:50:44.690Z,4.00
2018-09-29T02:51:44.824Z,4.00
2018-09-29T02:52:44.986Z,4.00
2018-09-29T02:53:45.149Z,4.00
2018-09-29T02:54:45.321Z,0.00
2018-09-29T02:55:45.482Z,4.00
2018-09-29T02:58:18.256Z,4.00
2018-09-29T02:59:19.769Z,4.00
2018-09-29T03:00:18.052Z,4.00
2018-09-29T03:01:18.212Z,4.00
2018-09-29T03:02:18.371Z,4.00
2018-09-29T03:03:20.269Z,4.00
2018-09-29T03:04:18.678Z,4.00
2018-09-29T03:05:18.840Z,4.00
2018-09-29T03:06:19.002Z,4.00
2018-09-29T03:07:19.175Z,4.00
2018-09-29T03:08:19.352Z,4.00
2018-09-29T03:09:19.476Z,4.00
2018-09-29T03:10:20.271Z,4.00
2018-09-29T03:11:19.801Z,4.00
2018-09-29T03:12:19.962Z,4.00
2018-09-29T03:14:52.226Z,4.00
2018-09-29T03:15:52.393Z,4.00
2018-09-29T03:16:52.560Z,4.00
2018-09-29T03:17:52.715Z,4.00
2018-09-29T03:18:52.877Z,4.00
2018-09-29T03:19:53.044Z,4.00
2018-09-29T03:20:53.205Z,4.00
2018-09-29T03:21:53.366Z,4.00
2018-09-29T03:24:25.143Z,4.00
2018-09-29T03:25:25.310Z,4.00
2018-09-29T03:26:25.467Z,4.00
2018-09-29T03:27:25.621Z,4.00
2018-09-29T03:28:25.786Z,4.00
2018-09-29T03:29:25.941Z,4.00
2018-09-29T03:30:26.109Z,4.00
2018-09-29T03:31:26.306Z,4.00
2018-09-29T03:32:26.441Z,4.00
2018-09-29T03:33:26.594Z,4.00
2018-09-29T03:34:26.752Z,4.00
2018-09-29T03:35:26.911Z,4.00
2018-09-29T03:36:27.072Z,4.00
2018-09-29T03:37:27.227Z,4.00
2018-09-29T03:38:27.402Z,4.00
2018-09-29T03:41:09.649Z,4.00
2018-09-29T03:42:09.809Z,4.00
2018-09-29T03:43:09.977Z,4.00
2018-09-29T03:44:10.140Z,4.00
2018-09-29T03:45:10.296Z,4.00
2018-09-29T03:46:10.460Z,4.00
2018-09-29T03:47:10.618Z,4.00
2018-09-29T03:48:10.772Z,4.00
2018-09-29T03:49:10.935Z,4.00
2018-09-29T03:50:11.091Z,4.00
2018-09-29T03:51:11.265Z,4.00
2018-09-29T03:52:11.409Z,4.00
2018-09-29T03:53:11.572Z,4.00
2018-09-29T03:54:11.738Z,4.00
2018-09-29T03:55:11.893Z,4.00
2018-09-29T04:00:12.469Z,4.00
2018-09-29T04:01:13.357Z,4.00
2018-09-29T04:02:12.770Z,4.00
2018-09-29T04:03:13.249Z,4.00
2018-09-29T04:04:13.052Z,4.00
2018-09-29T04:05:13.232Z,4.00
2018-09-29T04:06:13.580Z,4.00
2018-09-29T04:07:13.596Z,4.00
2018-09-29T04:08:13.761Z,0.00
2018-09-29T04:09:13.917Z,4.00
2018-09-29T04:10:14.858Z,4.00
2018-09-29T04:11:14.274Z,4.00
2018-09-29T04:12:14.427Z,4.00
2018-09-29T04:13:14.586Z,4.00
2018-09-29T04:14:14.749Z,4.00
2018-09-29T04:16:57.013Z,4.00
2018-09-29T04:17:57.172Z,0.00
2018-09-29T04:18:57.336Z,4.00
2018-09-29T04:19:57.495Z,4.00
2018-09-29T04:20:57.652Z,4.00
2018-09-29T04:21:57.811Z,4.00
2018-09-29T04:22:57.973Z,4.00
2018-09-29T04:23:58.136Z,4.00
2018-09-29T04:24:58.304Z,4.00
2018-09-29T04:25:58.461Z,4.00
2018-09-29T04:28:40.847Z,4.00
2018-09-29T04:29:41.009Z,4.00
2018-09-29T04:30:41.169Z,4.00
2018-09-29T04:31:41.341Z,4.00
2018-09-29T04:32:41.506Z,4.00
2018-09-29T04:33:41.684Z,4.00
2018-09-29T04:34:41.829Z,4.00
2018-09-29T04:35:41.990Z,4.00
2018-09-29T04:36:42.136Z,4.00
2018-09-29T04:37:42.308Z,4.00
2018-09-29T04:38:42.465Z,4.00
2018-09-29T04:39:42.634Z,4.00
2018-09-29T04:40:42.786Z,4.00
2018-09-29T04:41:42.957Z,4.00
2018-09-29T04:42:43.754Z,4.00
2018-09-29T04:43:51.266Z,4.00
2018-09-29T04:44:43.394Z,4.00
2018-09-29T04:45:43.558Z,4.00
2018-09-29T04:46:43.717Z,4.00
2018-09-29T04:47:43.885Z,0.00
2018-09-29T04:48:44.052Z,4.00
2018-09-29T04:49:44.198Z,4.00
2018-09-29T04:50:44.353Z,4.00
2018-09-29T04:51:44.521Z,4.00
2018-09-29T04:52:44.677Z,4.00
2018-09-29T04:53:44.839Z,4.00
2018-09-29T04:56:28.102Z,4.00
2018-09-29T04:57:28.262Z,8.00
2018-09-29T04:58:28.425Z,8.00
2018-09-29T04:59:29.127Z,8.00
2018-09-29T05:00:29.075Z,8.00
2018-09-29T05:01:28.967Z,12.00
2018-09-29T05:02:29.132Z,12.00
2018-09-29T05:03:29.281Z,12.00
2018-09-29T05:04:29.442Z,16.00
2018-09-29T05:05:29.604Z,20.00
2018-09-29T05:08:11.843Z,28.00
2018-09-29T05:09:12.011Z,32.00
2018-09-29T05:10:12.171Z,32.00
2018-09-29T05:11:12.330Z,36.00
2018-09-29T05:12:12.497Z,40.00
2018-09-29T05:13:12.656Z,44.00
2018-09-29T05:14:12.814Z,48.00
2018-09-29T05:15:20.415Z,52.00
2018-09-29T05:16:13.071Z,56.00
2018-09-29T05:17:13.227Z,60.00
2018-09-29T05:18:13.386Z,64.00
2018-09-29T05:19:13.532Z,72.00
2018-09-29T05:20:13.713Z,76.00
2018-09-29T05:21:15.402Z,88.00
2018-09-29T05:22:16.901Z,96.00
2018-09-29T05:23:14.196Z,108.00
2018-09-29T05:24:14.362Z,112.00
2018-09-29T05:25:14.504Z,128.00
2018-09-29T05:27:54.820Z,152.00
2018-09-29T05:28:46.878Z,160.00
2018-09-29T05:29:47.054Z,168.00
2018-09-29T05:30:47.270Z,180.00
2018-09-29T05:31:47.379Z,192.00
2018-09-29T05:32:47.541Z,204.00
2018-09-29T05:33:47.706Z,208.00
2018-09-29T05:34:47.870Z,224.00
2018-09-29T05:35:48.027Z,240.00
2018-09-29T05:36:48.183Z,248.00
2018-09-29T05:37:50.235Z,264.00
2018-09-29T05:38:48.476Z,272.00
2018-09-29T05:39:48.634Z,288.00
2018-09-29T05:40:48.796Z,300.00
2018-09-29T05:41:48.957Z,312.00
2018-09-29T05:42:49.119Z,324.00
2018-09-29T05:53:09.784Z,428.00
2018-09-29T05:54:09.952Z,436.00
2018-09-29T05:55:10.110Z,452.00
2018-09-29T05:56:10.274Z,464.00
2018-09-29T05:57:10.435Z,476.00
2018-09-29T05:58:10.594Z,488.00
2018-09-29T05:59:10.759Z,500.00
2018-09-29T06:00:10.939Z,512.00
2018-09-29T06:01:11.073Z,524.00
2018-09-29T06:02:11.250Z,536.00
2018-09-29T06:03:11.412Z,552.00
2018-09-29T06:04:11.580Z,572.00
2018-09-29T06:05:11.744Z,592.00
2018-09-29T06:06:11.920Z,608.00
2018-09-29T06:07:12.131Z,628.00
2018-09-29T06:10:08.874Z,692.00
2018-09-29T06:11:08.917Z,712.00
2018-09-29T06:12:09.079Z,740.00
2018-09-29T06:13:09.297Z,768.00
2018-09-29T06:14:09.402Z,792.00
2018-09-29T06:15:09.563Z,816.00
2018-09-29T06:16:09.719Z,840.00
2018-09-29T06:17:10.849Z,864.00
2018-09-29T06:18:10.019Z,900.00
2018-09-29T06:19:10.195Z,940.00
2018-09-29T06:20:10.348Z,984.00
2018-09-29T06:21:10.509Z,1028.00
2018-09-29T06:22:10.670Z,1064.00
2018-09-29T06:23:10.831Z,1124.00
2018-09-29T06:24:10.998Z,1176.00
2018-09-29T06:26:43.252Z,1428.00
2018-09-29T06:27:43.412Z,1476.00
2018-09-29T06:28:43.572Z,1548.00
2018-09-29T06:29:43.733Z,1576.00
2018-09-29T06:30:43.913Z,1584.00
2018-09-29T06:31:44.067Z,1540.00
2018-09-29T06:32:44.258Z,1520.00
2018-09-29T06:33:44.445Z,1548.00
2018-09-29T06:34:44.608Z,1608.00
2018-09-29T06:35:44.777Z,1696.00
2018-09-29T06:38:27.301Z,2040.00
2018-09-29T06:39:27.545Z,1948.00
2018-09-29T06:40:27.583Z,1784.00
2018-09-29T06:41:27.733Z,1672.00
2018-09-29T06:42:27.897Z,1560.00
2018-09-29T06:43:28.062Z,1748.00
2018-09-29T06:44:28.230Z,1656.00
2018-09-29T06:45:28.395Z,1544.00
2018-09-29T06:46:28.560Z,1596.00
2018-09-29T06:47:28.719Z,1904.00
2018-09-29T06:48:28.873Z,2544.00
2018-09-29T06:49:29.034Z,2244.00
2018-09-29T06:50:29.198Z,2360.00
2018-09-29T06:51:29.358Z,2316.00
2018-09-29T06:52:29.514Z,2444.00
2018-09-29T06:55:11.767Z,2956.00
2018-09-29T06:56:11.930Z,3112.00
2018-09-29T06:57:12.096Z,3112.00
2018-09-29T06:58:12.255Z,3372.00
2018-09-29T06:59:12.430Z,4136.00
2018-09-29T07:00:12.592Z,4140.00
2018-09-29T07:01:12.754Z,3592.00
2018-09-29T07:02:12.921Z,3188.00
2018-09-29T07:03:13.089Z,2656.00
2018-09-29T07:04:13.248Z,2736.00
2018-09-29T07:05:13.403Z,3356.00
2018-09-29T07:06:13.569Z,3856.00
2018-09-29T07:07:13.730Z,4204.00
2018-09-29T07:08:13.894Z,4548.00
2018-09-29T07:09:14.056Z,4800.00
2018-09-29T07:11:56.312Z,5076.00
2018-09-29T07:12:56.485Z,9124.00
2018-09-29T07:13:56.630Z,6828.00
2018-09-29T07:14:56.789Z,4768.00
2018-09-29T07:15:56.947Z,4776.00
2018-09-29T07:16:58.855Z,5032.00
2018-09-29T07:17:58.838Z,9704.00
2018-09-29T07:18:57.372Z,31552.00
2018-09-29T07:19:57.536Z,63328.00
2018-09-29T07:20:57.688Z,76768.00
2018-09-29T07:21:57.905Z,62432.00
2018-09-29T07:22:58.013Z,50688.00
2018-09-29T07:23:58.178Z,21120.00
2018-09-29T07:24:58.336Z,6732.00
2018-09-29T07:25:58.495Z,7876.00
2018-09-29T07:28:41.059Z,8232.00
2018-09-29T07:29:41.218Z,8476.00
2018-09-29T07:30:41.384Z,8832.00
2018-09-29T07:31:41.547Z,8672.00
2018-09-29T07:32:48.932Z,7660.00
2018-09-29T07:33:41.838Z,6856.00
2018-09-29T07:34:42.813Z,6380.00
2018-09-29T07:35:42.104Z,7028.00
2018-09-29T07:36:49.726Z,8800.00
2018-09-29T07:37:42.380Z,11596.00
2018-09-29T07:38:42.556Z,13612.00
2018-09-29T07:39:42.715Z,17472.00
2018-09-29T07:40:42.871Z,17792.00
2018-09-29T07:41:43.846Z,15216.00
2018-09-29T07:42:43.136Z,14776.00
2018-09-29T07:43:43.302Z,15232.00
2018-09-29T07:44:43.465Z,14856.00
2018-09-29T07:45:43.631Z,13944.00
2018-09-29T07:46:43.859Z,12196.00
2018-09-29T07:47:43.905Z,9960.00
2018-09-29T07:48:44.072Z,9460.00
2018-09-29T07:49:44.305Z,12376.00
2018-09-29T07:50:44.402Z,7696.00
2018-09-29T07:53:16.964Z,6480.00
2018-09-29T07:54:17.130Z,11824.00
2018-09-29T07:55:17.296Z,12588.00
2018-09-29T07:56:17.521Z,11372.00
2018-09-29T07:57:17.636Z,7844.00
2018-09-29T07:58:17.821Z,5336.00
2018-09-29T07:59:17.988Z,5188.00
2018-09-29T08:00:18.139Z,4972.00
2018-09-29T08:01:18.350Z,5452.00
2018-09-29T08:02:18.462Z,5244.00
2018-09-29T08:03:26.287Z,7224.00
2018-09-29T08:04:18.830Z,5076.00
2018-09-29T08:05:18.995Z,4096.00
2018-09-29T08:06:19.734Z,4032.00
2018-09-29T08:07:19.377Z,4168.00
2018-09-29T08:08:22.637Z,3968.00
2018-09-29T08:09:19.716Z,3772.00
2018-09-29T08:10:20.712Z,3760.00
2018-09-29T08:11:20.004Z,3672.00
2018-09-29T08:12:20.251Z,3628.00
2018-09-29T08:13:21.135Z,3536.00
2018-09-29T08:15:53.617Z,3272.00
2018-09-29T08:16:53.768Z,3256.00
2018-09-29T08:17:53.955Z,3340.00
2018-09-29T08:18:54.629Z,3420.00
2018-09-29T08:19:54.299Z,3272.00
2018-09-29T08:20:54.459Z,3440.00
2018-09-29T08:21:54.620Z,3452.00
2018-09-29T08:22:54.833Z,3384.00
2018-09-29T08:24:02.891Z,3400.00
2018-09-29T08:24:55.064Z,3420.00
2018-09-29T08:25:55.227Z,3444.00
2018-09-29T08:26:55.409Z,3444.00
2018-09-29T08:27:55.584Z,3468.00
2018-09-29T08:28:55.716Z,3468.00
2018-09-29T08:29:55.873Z,3312.00
2018-09-29T08:30:56.016Z,3340.00
2018-09-29T08:31:56.179Z,3384.00
2018-09-29T08:32:56.346Z,3448.00
2018-09-29T08:33:56.505Z,3484.00
2018-09-29T08:35:04.316Z,3420.00
2018-09-29T08:35:56.870Z,3304.00
2018-09-29T08:36:57.038Z,3400.00
2018-09-29T08:37:57.240Z,3388.00
2018-09-29T08:38:57.403Z,3304.00
2018-09-29T08:39:57.575Z,3352.00
2018-09-29T08:40:57.751Z,3544.00
2018-09-29T08:41:57.897Z,3584.00
2018-09-29T08:42:58.059Z,3548.00
2018-09-29T08:43:58.236Z,3444.00
2018-09-29T08:44:58.404Z,3492.00
2018-09-29T08:46:06.553Z,3480.00
2018-09-29T08:46:58.679Z,3452.00
2018-09-29T08:47:58.844Z,3460.00
2018-09-29T08:48:59.005Z,3432.00
2018-09-29T08:49:59.182Z,3556.00
2018-09-29T08:50:59.366Z,3540.00
2018-09-29T08:51:59.530Z,3360.00
2018-09-29T08:52:59.695Z,3432.00
2018-09-29T08:53:59.853Z,3332.00
2018-09-29T08:55:00.017Z,3500.00
2018-09-29T08:56:00.180Z,3452.00
2018-09-29T08:57:00.345Z,4164.00
2018-09-29T08:58:00.508Z,19552.00
2018-09-29T08:59:00.678Z,3992.00
2018-09-29T09:00:00.837Z,8992.00
2018-09-29T09:01:01.002Z,8144.00
2018-09-29T09:03:34.570Z,3664.00
2018-09-29T09:04:34.741Z,3508.00
2018-09-29T09:05:34.909Z,3360.00
2018-09-29T09:06:35.070Z,3396.00
2018-09-29T09:07:35.237Z,3292.00
2018-09-29T09:08:38.297Z,3228.00
2018-09-29T09:09:35.584Z,3412.00
2018-09-29T09:10:35.755Z,3348.00
2018-09-29T09:11:35.914Z,3436.00
2018-09-29T09:12:36.085Z,3336.00
2018-09-29T09:13:36.235Z,3244.00
2018-09-29T09:14:36.398Z,3104.00
2018-09-29T09:15:36.562Z,3232.00
2018-09-29T09:16:36.723Z,3244.00
2018-09-29T09:17:36.872Z,3304.00
2018-09-29T09:20:19.445Z,3440.00
2018-09-29T09:21:19.605Z,3408.00
2018-09-29T09:22:19.779Z,3504.00
2018-09-29T09:23:19.965Z,3196.00
2018-09-29T09:24:20.168Z,3360.00
2018-09-29T09:25:20.278Z,3988.00
2018-09-29T09:26:20.438Z,5104.00
2018-09-29T09:27:20.602Z,3540.00
2018-09-29T09:28:20.766Z,3220.00
2018-09-29T09:29:20.985Z,3628.00
2018-09-29T09:30:21.191Z,7148.00
2018-09-29T09:31:21.307Z,3908.00
2018-09-29T09:32:21.476Z,3948.00
2018-09-29T09:33:21.642Z,3828.00
2018-09-29T09:34:21.810Z,3648.00
2018-09-29T09:38:52.403Z,4268.00
2018-09-29T09:39:52.578Z,3064.00
2018-09-29T09:40:52.741Z,2972.00
2018-09-29T09:41:52.921Z,3108.00
2018-09-29T09:42:53.069Z,3016.00
2018-09-29T09:43:53.235Z,3060.00
2018-09-29T09:44:53.397Z,3056.00
2018-09-29T09:45:53.560Z,3044.00
2018-09-29T09:46:53.751Z,3024.00
2018-09-29T09:47:53.917Z,3012.00
2018-09-29T09:48:54.711Z,2992.00
2018-09-29T09:49:54.246Z,2996.00
2018-09-29T09:50:54.412Z,2916.00
2018-09-29T09:51:54.576Z,3120.00
2018-09-29T09:52:54.743Z,2928.00
2018-09-29T09:55:37.009Z,3016.00
2018-09-29T09:56:37.172Z,3556.00
2018-09-29T09:57:37.337Z,3188.00
2018-09-29T09:58:37.501Z,2948.00
2018-09-29T09:59:37.665Z,2820.00
2018-09-29T10:00:37.831Z,2764.00
2018-09-29T10:01:38.236Z,2764.00
2018-09-29T10:02:38.182Z,2684.00
2018-09-29T10:03:38.341Z,2720.00
2018-09-29T10:04:38.516Z,2700.00
2018-09-29T10:07:21.076Z,2652.00
2018-09-29T10:08:21.242Z,2628.00
2018-09-29T10:09:21.412Z,2572.00
2018-09-29T10:10:21.682Z,2640.00
2018-09-29T10:11:21.702Z,2624.00
2018-09-29T10:12:21.862Z,2548.00
2018-09-29T10:13:22.026Z,2596.00
2018-09-29T10:14:22.204Z,2572.00
2018-09-29T10:15:22.380Z,2640.00
2018-09-29T10:16:22.584Z,2592.00
2018-09-29T10:19:05.117Z,2516.00
2018-09-29T10:20:05.295Z,2524.00
2018-09-29T10:21:13.382Z,2504.00
2018-09-29T10:22:05.650Z,2504.00
2018-09-29T10:23:05.848Z,2484.00
2018-09-29T10:24:06.016Z,2356.00
2018-09-29T10:25:13.593Z,2488.00
2018-09-29T10:26:06.256Z,2452.00
2018-09-29T10:27:06.416Z,2440.00
2018-09-29T10:28:06.583Z,2516.00
2018-09-29T10:29:06.778Z,2412.00
2018-09-29T10:30:06.912Z,2488.00
2018-09-29T10:31:07.085Z,2400.00
2018-09-29T10:32:07.245Z,2404.00
2018-09-29T10:33:07.527Z,2300.00
2018-09-29T10:34:07.560Z,2368.00
2018-09-29T10:35:08.337Z,2228.00
2018-09-29T10:36:07.917Z,2272.00
2018-09-29T10:37:08.064Z,2328.00
2018-09-29T10:38:08.245Z,2320.00
2018-09-29T10:39:08.419Z,2288.00
2018-09-29T10:41:50.987Z,2340.00
2018-09-29T10:42:51.240Z,2288.00
2018-09-29T10:43:51.281Z,2120.00
2018-09-29T10:44:51.426Z,2344.00
2018-09-29T10:45:51.609Z,2224.00
2018-09-29T10:46:51.796Z,2288.00
2018-09-29T10:47:51.960Z,2324.00
2018-09-29T10:48:52.130Z,2276.00
2018-09-29T10:49:52.303Z,2244.00
2018-09-29T10:50:52.452Z,2224.00
2018-09-29T10:51:52.618Z,2188.00
2018-09-29T10:52:52.834Z,2224.00
2018-09-29T10:53:52.946Z,2228.00
2018-09-29T10:54:53.146Z,2212.00
2018-09-29T10:55:53.315Z,2228.00
2018-09-29T10:58:35.879Z,2224.00
2018-09-29T10:59:36.055Z,2212.00
2018-09-29T11:00:37.113Z,2220.00
2018-09-29T11:01:36.400Z,2184.00
2018-09-29T11:02:36.633Z,2300.00
2018-09-29T11:03:36.735Z,2308.00
2018-09-29T11:04:36.892Z,2300.00
2018-09-29T11:05:37.056Z,2272.00
2018-09-29T11:06:37.227Z,2252.00
2018-09-29T11:07:46.149Z,2304.00
2018-09-29T11:08:37.600Z,2264.00
2018-09-29T11:09:37.778Z,2272.00
2018-09-29T11:10:37.943Z,2312.00
2018-09-29T11:11:38.094Z,2216.00
2018-09-29T11:12:38.283Z,2248.00
2018-09-29T11:13:38.471Z,2276.00
2018-09-29T11:14:46.582Z,2292.00
2018-09-29T11:15:38.726Z,2276.00
2018-09-29T11:16:39.920Z,2304.00
2018-09-29T11:17:40.643Z,2280.00
2018-09-29T11:18:41.159Z,2232.00
2018-09-29T11:19:39.321Z,2256.00
2018-09-29T11:20:39.494Z,2288.00
2018-09-29T11:21:39.631Z,2252.00
2018-09-29T11:22:39.793Z,2244.00
2018-09-29T11:23:39.966Z,2224.00
2018-09-29T11:24:40.759Z,2220.00
2018-09-29T11:27:13.444Z,2260.00
2018-09-29T11:28:13.698Z,2264.00
2018-09-29T11:29:15.454Z,2232.00
2018-09-29T11:30:14.006Z,2216.00
2018-09-29T11:31:14.161Z,2208.00
2018-09-29T11:32:22.022Z,2216.00
2018-09-29T11:33:14.432Z,2196.00
2018-09-29T11:34:14.590Z,2212.00
2018-09-29T11:35:14.763Z,2232.00
2018-09-29T11:36:14.927Z,2256.00
2018-09-29T11:37:15.174Z,2252.00
2018-09-29T11:38:15.320Z,2256.00
2018-09-29T11:39:15.491Z,2152.00
2018-09-29T11:40:15.636Z,2220.00
2018-09-29T11:41:22.965Z,2204.00
2018-09-29T11:42:16.006Z,2280.00
2018-09-29T11:43:16.236Z,2216.00
2018-09-29T11:44:17.058Z,2180.00
2018-09-29T11:45:16.483Z,2236.00
2018-09-29T11:46:16.647Z,2212.00
2018-09-29T11:47:16.817Z,2252.00
2018-09-29T11:48:16.978Z,2292.00
2018-09-29T11:49:17.143Z,2252.00
2018-09-29T11:50:17.308Z,2160.00
2018-09-29T11:51:17.476Z,2040.00
2018-09-29T11:52:17.637Z,2152.00
2018-09-29T11:53:17.803Z,2160.00
2018-09-29T11:54:17.962Z,2124.00
2018-09-29T11:55:18.123Z,2156.00
2018-09-29T11:58:00.736Z,2168.00
2018-09-29T11:59:00.815Z,2068.00
2018-09-29T12:00:00.954Z,2124.00
2018-09-29T12:01:01.165Z,2040.00
2018-09-29T12:02:01.469Z,2148.00
2018-09-29T12:03:02.078Z,2140.00
2018-09-29T12:05:34.673Z,2096.00
2018-09-29T12:06:35.691Z,2072.00
2018-09-29T12:07:36.751Z,2156.00
2018-09-29T12:08:35.681Z,2088.00
2018-09-29T12:09:35.219Z,2208.00
2018-09-29T12:10:36.190Z,2164.00
2018-09-29T12:11:35.615Z,2220.00
2018-09-29T12:12:35.778Z,2160.00
2018-09-29T12:13:35.931Z,2200.00
2018-09-29T12:14:36.117Z,2204.00
2018-09-29T12:15:36.257Z,2152.00
2018-09-29T12:16:36.419Z,2168.00
2018-09-29T12:17:36.639Z,2212.00
2018-09-29T12:18:36.750Z,2196.00
2018-09-29T12:19:36.916Z,2232.00
2018-09-29T12:22:09.515Z,2244.00
2018-09-29T12:23:09.681Z,2204.00
2018-09-29T12:24:09.868Z,2268.00
2018-09-29T12:25:10.002Z,2212.00
2018-09-29T12:26:10.197Z,2172.00
2018-09-29T12:27:10.420Z,2284.00
2018-09-29T12:28:10.540Z,2240.00
2018-09-29T12:29:10.740Z,2168.00
2018-09-29T12:30:10.939Z,2264.00
2018-09-29T12:31:11.048Z,2208.00
2018-09-29T12:32:11.215Z,2240.00
2018-09-29T12:33:11.380Z,2252.00
2018-09-29T12:34:12.272Z,2248.00
2018-09-29T12:35:11.763Z,2304.00
2018-09-29T12:36:11.932Z,2204.00
2018-09-29T12:38:55.715Z,2244.00
2018-09-29T12:39:54.639Z,2148.00
2018-09-29T12:40:54.819Z,2232.00
2018-09-29T12:41:54.957Z,2232.00
2018-09-29T12:42:55.131Z,2140.00
2018-09-29T12:43:55.312Z,2180.00
2018-09-29T12:44:55.536Z,2176.00
2018-09-29T12:45:55.616Z,2180.00
2018-09-29T12:46:55.811Z,2208.00
2018-09-29T12:47:55.982Z,2228.00
2018-09-29T12:48:56.145Z,2180.00
2018-09-29T12:49:56.335Z,2196.00
2018-09-29T12:50:56.486Z,2088.00
2018-09-29T12:51:56.785Z,2196.00
2018-09-29T12:52:56.838Z,2136.00
2018-09-29T12:55:39.430Z,2132.00
2018-09-29T12:56:39.774Z,2084.00
2018-09-29T12:57:40.640Z,2132.00
2018-09-29T12:58:40.153Z,2128.00
2018-09-29T12:59:40.139Z,2176.00
2018-09-29T13:00:40.300Z,2192.00
2018-09-29T13:01:41.147Z,2148.00
2018-09-29T13:02:40.672Z,2140.00
2018-09-29T13:03:40.843Z,2140.00
2018-09-29T13:04:40.991Z,2160.00
2018-09-29T13:07:31.327Z,2100.00
2018-09-29T13:08:23.363Z,2172.00
2018-09-29T13:09:24.306Z,2108.00
2018-09-29T13:10:23.755Z,2072.00
2018-09-29T13:11:23.832Z,2096.00
2018-09-29T13:12:23.996Z,2132.00
2018-09-29T13:13:24.167Z,2124.00
2018-09-29T13:14:24.342Z,2080.00
2018-09-29T13:15:25.306Z,2100.00
2018-09-29T13:16:24.588Z,2084.00
2018-09-29T13:20:39.122Z,2116.00
2018-09-29T13:21:39.296Z,2172.00
2018-09-29T13:22:39.481Z,2176.00
2018-09-29T13:23:39.652Z,2100.00
2018-09-29T13:24:39.819Z,2092.00
2018-09-29T13:25:39.982Z,2116.00
2018-09-29T13:26:40.148Z,2084.00
2018-09-29T13:27:48.234Z,2136.00
2018-09-29T13:28:40.465Z,2060.00
2018-09-29T13:29:40.680Z,2096.00
2018-09-29T13:30:40.808Z,2088.00
2018-09-29T13:31:48.992Z,2108.00
2018-09-29T13:32:41.133Z,2120.00
2018-09-29T13:33:41.297Z,2024.00
2018-09-29T13:34:41.494Z,2032.00
2018-09-29T13:35:41.628Z,2008.00
2018-09-29T13:36:41.803Z,1964.00
2018-09-29T13:37:41.970Z,2072.00
2018-09-29T13:38:42.146Z,2032.00
2018-09-29T13:39:42.310Z,1992.00
2018-09-29T13:40:43.484Z,1988.00
2018-09-29T13:41:42.654Z,2008.00
2018-09-29T13:42:42.823Z,2060.00
2018-09-29T13:43:43.180Z,2128.00
2018-09-29T13:44:43.147Z,2088.00
2018-09-29T13:45:43.328Z,2068.00
2018-09-29T13:49:26.768Z,2080.00
2018-09-29T13:50:34.107Z,2148.00
2018-09-29T13:51:27.142Z,2084.00
2018-09-29T13:52:27.361Z,2084.00
2018-09-29T13:53:34.994Z,2064.00
2018-09-29T13:54:27.650Z,2060.00
2018-09-29T13:55:27.811Z,2060.00
2018-09-29T13:56:27.979Z,2056.00
2018-09-29T13:57:28.144Z,2032.00
2018-09-29T13:58:28.349Z,1972.00
2018-09-29T13:59:28.524Z,1940.00
2018-09-29T14:00:28.654Z,1972.00
2018-09-29T14:01:28.826Z,1952.00
2018-09-29T14:02:29.014Z,1984.00
2018-09-29T14:03:30.185Z,1996.00
2018-09-29T14:04:29.363Z,1928.00
2018-09-29T14:05:29.532Z,1960.00
2018-09-29T14:06:29.849Z,1908.00
2018-09-29T14:07:30.053Z,1880.00
2018-09-29T14:10:02.221Z,1820.00
2018-09-29T14:11:02.402Z,1884.00
2018-09-29T14:12:02.556Z,1804.00